Time;durP1;ratioP1;P1;durP2;ratioP2;P2;SDS_P1;SDS_P2;PMS_P1;PMS_P2;Temp;Humidity;BMP_temperature;BMP_pressure;BME280_temperature;BME280_humidity;BME280_pressure;Samples;Min_cycle;Max_cycle;Signal;HPM_P1;HPM_P2
2022/09/01 00:02:15;;;;;;;1.60;1.50;;;12.50;1.00;;;;;;5068172;28;20174;-71
2022/09/01 00:04:43;;;;;;;1.90;1.80;;;12.50;1.00;;;;;;5068234;28;20416;-72
2022/09/01 00:07:10;;;;;;;2.47;2.20;;;12.40;1.00;;;;;;5067591;28;20417;-72
2022/09/01 00:09:37;;;;;;;1.73;1.63;;;12.40;1.00;;;;;;5068273;28;20436;-71
2022/09/01 00:12:04;;;;;;;2.40;2.30;;;12.40;1.00;;;;;;5067375;28;20412;-73
2022/09/01 00:14:33;;;;;;;1.90;1.80;;;12.40;1.00;;;;;;5069148;28;20460;-72
2022/09/01 00:17:02;;;;;;;2.20;2.00;;;12.40;1.00;;;;;;5067201;28;20451;-72
2022/09/01 00:19:28;;;;;;;2.53;2.40;;;12.40;1.00;;;;;;5067707;28;20460;-72
2022/09/01 00:21:54;;;;;;;1.73;1.63;;;12.30;1.00;;;;;;5069132;28;20466;-72
2022/09/01 00:24:20;;;;;;;2.00;1.90;;;12.40;1.00;;;;;;5068962;28;20464;-72
2022/09/01 00:26:46;;;;;;;1.73;1.63;;;12.30;1.00;;;;;;5053496;28;20175;-71
2022/09/01 00:29:12;;;;;;;2.03;1.90;;;12.30;1.00;;;;;;5055349;28;20403;-71
2022/09/01 00:31:38;;;;;;;2.83;2.30;;;12.30;1.00;;;;;;5055731;28;20191;-73
2022/09/01 00:34:04;;;;;;;2.87;1.90;;;12.20;1.00;;;;;;5055549;28;20667;-72
2022/09/01 00:36:30;;;;;;;2.33;2.10;;;12.30;1.00;;;;;;5054694;28;20254;-72
2022/09/01 00:38:55;;;;;;;2.40;2.20;;;12.20;1.00;;;;;;5055491;28;20508;-72
2022/09/01 00:41:24;;;;;;;1.80;1.70;;;12.20;1.00;;;;;;5054606;28;20224;-72
2022/09/01 00:43:55;;;;;;;1.93;1.83;;;12.20;1.00;;;;;;5055575;28;20574;-72
2022/09/01 00:46:27;;;;;;;2.50;2.30;;;12.10;1.00;;;;;;5054493;28;20402;-70
2022/09/01 00:49:16;;;;;;;2.03;1.80;;;12.10;1.00;;;;;;5053434;28;20540;-72
2022/09/01 00:51:49;;;;;;;1.87;1.77;;;12.10;1.00;;;;;;5055315;28;20409;-70
2022/09/01 00:54:21;;;;;;;1.70;1.60;;;12.10;1.00;;;;;;5055186;28;20803;-72
2022/09/01 00:56:48;;;;;;;3.03;2.50;;;12.10;1.00;;;;;;5053312;28;20766;-72
2022/09/01 00:59:16;;;;;;;2.13;1.97;;;12.10;1.00;;;;;;5055248;28;20421;-71
2022/09/01 01:01:42;;;;;;;1.87;1.77;;;12.10;1.00;;;;;;5054199;28;20388;-72
2022/09/01 01:04:15;;;;;;;1.60;1.50;;;12.00;1.00;;;;;;5054076;28;20425;-72
2022/09/01 01:06:48;;;;;;;1.77;1.63;;;12.00;1.00;;;;;;5052626;28;20420;-72
2022/09/01 01:09:19;;;;;;;2.03;1.83;;;12.00;1.00;;;;;;5053682;28;20441;-72
2022/09/01 01:11:46;;;;;;;1.90;1.80;;;12.00;1.00;;;;;;5053761;28;20405;-72
2022/09/01 01:14:14;;;;;;;2.10;1.87;;;11.90;1.00;;;;;;5053698;28;20464;-72
2022/09/01 01:16:43;;;;;;;1.70;1.60;;;11.90;1.00;;;;;;5052721;28;20383;-70
2022/09/01 01:25:21;;;;;;;2.00;1.80;;;11.90;1.00;;;;;;5054161;28;20459;-73
2022/09/01 01:27:47;;;;;;;2.30;2.10;;;11.90;1.00;;;;;;5052708;28;20441;-70
2022/09/01 01:30:16;;;;;;;2.40;2.20;;;11.90;1.00;;;;;;5053598;28;20448;-72
2022/09/01 01:32:46;;;;;;;3.50;1.80;;;11.90;1.00;;;;;;5053277;28;20459;-71
2022/09/01 01:35:14;;;;;;;4.60;2.30;;;11.80;1.00;;;;;;5054571;28;20969;-72
2022/09/01 01:37:44;;;;;;;2.00;1.90;;;11.90;1.00;;;;;;5052477;28;20443;-72
2022/09/01 01:40:14;;;;;;;2.10;2.00;;;11.90;1.00;;;;;;5053119;28;20405;-72
2022/09/01 01:42:46;;;;;;;2.00;1.90;;;11.90;1.00;;;;;;5052602;28;20384;-70
2022/09/01 01:45:16;;;;;;;2.20;2.10;;;11.90;1.00;;;;;;5054426;28;20900;-72
2022/09/01 01:47:50;;;;;;;3.00;2.10;;;11.80;1.00;;;;;;5053406;28;20404;-70
2022/09/01 01:50:16;;;;;;;2.20;2.10;;;11.80;1.00;;;;;;5054254;28;20412;-71
2022/09/01 01:52:42;;;;;;;2.30;2.00;;;11.80;1.00;;;;;;5052945;28;20388;-72
2022/09/01 01:55:09;;;;;;;1.63;1.53;;;11.80;1.00;;;;;;5054022;28;20431;-71
2022/09/01 01:57:36;;;;;;;2.03;1.90;;;11.80;1.00;;;;;;5053089;28;20174;-71
2022/09/01 02:00:03;;;;;;;2.50;2.37;;;11.80;1.00;;;;;;5054167;28;20368;-72
2022/09/01 02:02:28;;;;;;;1.93;1.83;;;11.80;1.00;;;;;;5053506;28;20368;-72
2022/09/01 02:04:54;;;;;;;3.07;2.20;;;11.80;1.00;;;;;;5052655;28;20542;-72
2022/09/01 02:07:20;;;;;;;2.43;2.23;;;11.70;1.00;;;;;;5051705;28;20175;-71
2022/09/01 02:09:47;;;;;;;2.20;2.00;;;11.70;1.00;;;;;;5053900;28;20568;-72
2022/09/01 02:12:13;;;;;;;1.90;1.80;;;11.70;1.00;;;;;;5053817;28;20248;-72
2022/09/01 02:15:06;;;;;;;2.17;1.80;;;11.70;1.00;;;;;;5053747;28;20457;-72
2022/09/01 02:17:31;;;;;;;2.90;2.60;;;11.70;1.00;;;;;;5052486;28;20425;-72
2022/09/01 02:19:58;;;;;;;2.33;2.13;;;11.70;1.00;;;;;;5052274;28;20380;-72
2022/09/01 02:22:24;;;;;;;2.10;1.63;;;11.60;1.00;;;;;;5052262;28;20194;-71
2022/09/01 02:24:51;;;;;;;2.00;1.90;;;11.60;1.00;;;;;;5053627;28;20380;-72
2022/09/01 02:27:20;;;;;;;2.73;2.00;;;11.60;1.00;;;;;;5052618;28;20244;-70
2022/09/01 02:29:47;;;;;;;2.10;1.90;;;11.60;1.00;;;;;;5053532;28;20384;-72
2022/09/01 02:32:20;;;;;;;2.03;1.80;;;11.60;1.00;;;;;;5052363;28;20487;-71
2022/09/01 02:34:52;;;;;;;1.97;1.77;;;11.60;1.00;;;;;;5053351;28;20494;-72
2022/09/01 02:37:24;;;;;;;1.93;1.60;;;11.60;1.00;;;;;;5051879;28;20418;-72
2022/09/01 02:39:56;;;;;;;1.80;1.70;;;11.60;1.00;;;;;;5053417;28;20940;-71
2022/09/01 02:42:25;;;;;;;2.53;1.87;;;11.60;1.00;;;;;;5053295;28;20412;-71
2022/09/01 02:44:52;;;;;;;2.37;2.17;;;11.60;1.00;;;;;;5053298;28;20484;-70
2022/09/01 02:47:18;;;;;;;3.30;1.90;;;11.60;1.00;;;;;;5052278;28;20494;-72
2022/09/01 02:49:44;;;;;;;1.67;1.57;;;11.50;1.00;;;;;;5051642;28;20964;-70
2022/09/01 02:52:10;;;;;;;2.10;2.00;;;11.50;1.00;;;;;;5053128;28;20173;-71
2022/09/01 02:54:36;;;;;;;2.27;2.07;;;11.50;1.00;;;;;;5051482;28;20431;-72
2022/09/01 02:57:02;;;;;;;3.00;1.90;;;11.50;1.00;;;;;;5051008;28;20159;-70
2022/09/01 02:59:29;;;;;;;2.60;2.03;;;11.50;1.00;;;;;;5051662;28;20194;-72
2022/09/01 03:01:56;;;;;;;1.63;1.53;;;11.50;1.00;;;;;;5053127;28;20372;-71
2022/09/01 03:04:23;;;;;;;1.53;1.43;;;11.50;1.00;;;;;;5053063;28;20408;-71
2022/09/01 03:06:53;;;;;;;1.70;1.60;;;11.40;1.00;;;;;;5050926;28;20949;-71
2022/09/01 03:09:19;;;;;;;3.03;2.30;;;11.50;1.00;;;;;;5053002;28;20417;-71
2022/09/01 03:11:48;;;;;;;2.23;1.90;;;11.40;1.00;;;;;;5052300;28;20379;-71
2022/09/01 03:14:15;;;;;;;1.70;1.60;;;11.50;1.00;;;;;;5051527;28;20460;-71
2022/09/01 03:16:42;;;;;;;2.07;1.87;;;11.50;1.00;;;;;;5052057;28;20372;-72
2022/09/01 03:19:09;;;;;;;2.37;2.17;;;11.50;1.00;;;;;;5051786;28;20988;-71
2022/09/01 03:21:39;;;;;;;3.10;1.97;;;11.50;1.00;;;;;;5052752;28;20463;-72
2022/09/01 03:24:13;;;;;;;1.80;1.70;;;11.50;1.00;;;;;;5052781;28;20399;-71
2022/09/01 03:26:40;;;;;;;2.43;2.00;;;11.50;1.00;;;;;;5052099;28;20383;-70
2022/09/01 03:29:07;;;;;;;2.30;2.10;;;11.50;1.00;;;;;;5050774;28;20465;-71
2022/09/01 03:31:33;;;;;;;2.17;1.97;;;11.50;1.00;;;;;;5052722;28;20442;-71
2022/09/01 03:34:02;;;;;;;4.83;2.30;;;11.50;1.00;;;;;;5051378;28;20459;-72
2022/09/01 03:36:29;;;;;;;1.70;1.60;;;11.50;1.00;;;;;;5051862;28;20470;-71
2022/09/01 03:38:56;;;;;;;3.50;1.93;;;11.50;1.00;;;;;;5051323;28;20461;-71
2022/09/01 03:41:27;;;;;;;2.13;2.03;;;11.50;1.00;;;;;;5052678;28;20412;-72
2022/09/01 03:43:57;;;;;;;2.43;2.10;;;11.50;1.00;;;;;;5052239;28;20786;-71
2022/09/01 03:46:24;;;;;;;2.07;1.93;;;11.50;1.00;;;;;;5050319;28;20384;-70
2022/09/01 03:48:53;;;;;;;3.93;2.63;;;11.50;1.00;;;;;;5051240;28;20452;-72
2022/09/01 03:51:21;;;;;;;2.13;2.03;;;11.40;1.00;;;;;;5052689;28;20452;-72
2022/09/01 03:53:47;;;;;;;2.60;1.97;;;11.40;1.00;;;;;;5051137;28;20473;-72
2022/09/01 03:56:14;;;;;;;1.83;1.73;;;11.40;1.00;;;;;;5051442;28;20463;-71
2022/09/01 03:58:45;;;;;;;2.63;1.77;;;11.40;1.00;;;;;;5052845;28;20420;-72
2022/09/01 04:01:12;;;;;;;2.23;2.13;;;11.40;1.00;;;;;;5054791;28;20421;-71
2022/09/01 04:03:40;;;;;;;1.93;1.83;;;11.40;1.00;;;;;;5055562;28;20376;-72
2022/09/01 04:06:08;;;;;;;2.00;1.67;;;11.40;1.00;;;;;;5055281;28;20376;-71
2022/09/01 04:08:34;;;;;;;2.00;1.90;;;11.40;1.00;;;;;;5055026;28;21010;-72
2022/09/01 04:11:09;;;;;;;2.00;1.90;;;11.40;1.00;;;;;;5056038;28;20401;-70
2022/09/01 04:13:38;;;;;;;2.17;2.00;;;11.30;1.00;;;;;;5055969;28;20594;-72
2022/09/01 04:18:50;;;;;;;1.90;1.70;;;11.40;1.00;;;;;;5054597;28;20424;-70
2022/09/01 04:21:16;;;;;;;2.47;2.27;;;11.40;1.00;;;;;;5055817;28;20406;-71
2022/09/01 04:23:44;;;;;;;1.83;1.73;;;11.40;1.00;;;;;;5055586;28;20167;-71
2022/09/01 04:26:13;;;;;;;1.90;1.80;;;11.40;1.00;;;;;;5053633;28;20532;-72
2022/09/01 04:28:44;;;;;;;1.70;1.60;;;11.30;1.00;;;;;;5054499;28;20411;-71
2022/09/01 04:31:17;;;;;;;1.90;1.80;;;11.30;1.00;;;;;;5054570;28;20416;-71
2022/09/01 04:33:48;;;;;;;2.17;1.90;;;11.30;1.00;;;;;;5055606;28;20411;-71
2022/09/01 04:36:22;;;;;;;2.70;1.90;;;11.20;1.00;;;;;;5053703;28;20925;-70
2022/09/01 04:38:57;;;;;;;2.00;1.90;;;11.20;1.00;;;;;;5055441;28;20436;-71
2022/09/01 04:41:25;;;;;;;2.30;2.13;;;11.20;1.00;;;;;;5053816;28;20954;-72
2022/09/01 04:43:55;;;;;;;2.50;2.30;;;11.20;1.00;;;;;;5055645;28;20729;-71
2022/09/01 04:46:22;;;;;;;3.77;2.17;;;11.20;1.00;;;;;;5053187;28;20481;-71
2022/09/01 04:48:52;;;;;;;6.47;3.30;;;11.20;1.00;;;;;;5055383;28;20433;-70
2022/09/01 04:51:19;;;;;;;3.10;2.73;;;11.20;1.00;;;;;;5055478;28;20740;-70
2022/09/01 04:53:47;;;;;;;2.43;2.23;;;11.20;1.00;;;;;;5055183;28;20423;-70
2022/09/01 04:56:18;;;;;;;2.40;2.20;;;11.20;1.00;;;;;;5053122;28;20414;-72
2022/09/01 04:58:45;;;;;;;2.40;2.30;;;11.20;1.00;;;;;;5054497;28;20504;-72
2022/09/01 05:01:24;;;;;;;3.73;2.20;;;11.20;1.00;;;;;;5055334;28;20397;-72
2022/09/01 05:04:00;;;;;;;4.40;2.43;;;11.20;1.00;;;;;;5055274;28;20402;-72
2022/09/01 05:06:28;;;;;;;2.20;2.00;;;11.20;1.00;;;;;;5054096;28;20397;-71
2022/09/01 05:08:56;;;;;;;2.17;2.07;;;11.20;1.00;;;;;;5055052;28;20407;-70
2022/09/01 05:11:22;;;;;;;2.17;2.03;;;11.20;1.00;;;;;;5055027;28;20433;-71
2022/09/01 05:13:49;;;;;;;3.07;2.10;;;11.30;1.00;;;;;;5054811;28;20491;-72
2022/09/01 05:16:20;;;;;;;2.70;2.50;;;11.30;1.00;;;;;;5053585;28;20394;-72
2022/09/01 05:18:48;;;;;;;4.20;2.20;;;11.30;1.00;;;;;;5054588;28;20496;-72
2022/09/01 05:21:18;;;;;;;4.00;2.20;;;11.30;1.00;;;;;;5055068;28;20368;-71
2022/09/01 05:23:45;;;;;;;3.37;3.07;;;11.30;1.00;;;;;;5054872;28;20405;-71
2022/09/01 05:26:16;;;;;;;3.93;3.53;;;11.40;1.00;;;;;;5053798;28;20405;-72
2022/09/01 05:28:44;;;;;;;3.53;3.23;;;11.40;1.00;;;;;;5054621;28;20421;-71
2022/09/01 05:31:11;;;;;;;3.03;2.80;;;11.50;1.00;;;;;;5053398;28;20926;-71
2022/09/01 05:33:44;;;;;;;3.53;3.23;;;11.50;1.00;;;;;;5054471;28;20441;-72
2022/09/01 05:36:11;;;;;;;3.10;2.90;;;11.60;1.00;;;;;;5051802;28;20805;-70
2022/09/01 05:38:41;;;;;;;3.37;2.90;;;11.60;1.00;;;;;;5054411;28;20467;-72
2022/09/01 05:41:08;;;;;;;4.10;3.17;;;11.70;1.00;;;;;;5054419;28;20409;-70
2022/09/01 05:43:35;;;;;;;3.20;2.83;;;11.70;1.00;;;;;;5054505;28;20412;-72
2022/09/01 05:46:06;;;;;;;3.40;3.10;;;11.80;1.00;;;;;;5052272;28;20417;-74
2022/09/01 05:48:38;;;;;;;4.53;4.13;;;11.80;1.00;;;;;;5054255;28;20425;-72
2022/09/01 05:51:05;;;;;;;4.80;3.87;;;11.90;1.00;;;;;;5054186;28;20734;-72
2022/09/01 05:53:32;;;;;;;5.20;4.33;;;11.90;1.00;;;;;;5053511;28;20901;-72
2022/09/01 05:56:05;;;;;;;5.07;3.77;;;12.00;1.00;;;;;;5054057;28;20369;-72
2022/09/01 05:58:33;;;;;;;6.80;3.70;;;12.00;1.00;;;;;;5054158;28;20428;-72
2022/09/01 06:01:00;;;;;;;4.20;3.17;;;12.10;1.00;;;;;;5054038;28;20398;-71
2022/09/01 06:03:26;;;;;;;2.83;2.63;;;12.10;1.70;;;;;;5053969;28;20413;-71
2022/09/01 06:05:54;;;;;;;3.00;2.70;;;12.20;11.10;;;;;;5053761;28;20401;-72
2022/09/01 06:08:23;;;;;;;3.10;2.40;;;12.30;15.30;;;;;;5053225;28;20414;-71
2022/09/01 06:10:50;;;;;;;4.50;3.10;;;12.30;15.10;;;;;;5053872;28;20479;-71
2022/09/01 06:13:20;;;;;;;2.40;2.30;;;12.40;17.80;;;;;;5053192;28;20402;-71
2022/09/01 06:15:52;;;;;;;2.93;2.73;;;12.50;21.90;;;;;;5053577;28;20460;-73
2022/09/01 06:18:20;;;;;;;3.10;2.10;;;12.50;36.80;;;;;;5053032;28;20747;-71
2022/09/01 06:20:47;;;;;;;2.93;2.57;;;12.60;37.40;;;;;;5053650;28;20857;-72
2022/09/01 06:23:16;;;;;;;2.67;2.47;;;12.70;52.40;;;;;;5051903;28;20830;-72
2022/09/01 06:25:45;;;;;;;3.80;2.50;;;12.80;50.90;;;;;;5053593;28;20744;-71
2022/09/01 06:28:17;;;;;;;2.10;1.90;;;12.80;65.00;;;;;;5052727;28;20436;-71
2022/09/01 06:30:44;;;;;;;14.40;9.50;;;12.90;68.10;;;;;;5053205;28;20401;-72
2022/09/01 06:33:12;;;;;;;23.53;16.10;;;13.00;86.90;;;;;;5053144;28;20427;-72
2022/09/01 06:35:40;;;;;;;8.53;6.87;;;13.10;88.60;;;;;;5053528;28;20496;-71
2022/09/01 06:38:08;;;;;;;5.93;4.60;;;13.20;93.20;;;;;;5052409;28;20429;-70
2022/09/01 06:40:40;;;;;;;3.47;3.17;;;13.30;93.20;;;;;;5053455;28;20409;-71
2022/09/01 06:43:07;;;;;;;2.73;2.53;;;13.40;93.10;;;;;;5053281;28;21054;-72
2022/09/01 06:45:41;;;;;;;4.40;2.47;;;13.50;98.70;;;;;;5053282;28;21220;-72
2022/09/01 06:48:08;;;;;;;1.90;1.80;;;13.60;97.10;;;;;;5051704;28;20969;-72
2022/09/01 06:50:34;;;;;;;1.90;1.80;;;13.70;99.90;;;;;;5053309;28;20429;-72
2022/09/01 06:53:09;;;;;;;2.30;2.20;;;13.80;96.20;;;;;;5053055;28;20833;-71
2022/09/01 06:55:37;;;;;;;3.37;2.20;;;13.90;95.50;;;;;;5053007;28;20464;-72
2022/09/01 06:58:08;;;;;;;2.13;1.83;;;14.10;99.90;;;;;;5052183;28;20926;-71
2022/09/01 07:00:41;;;;;;;21.23;10.47;;;14.30;99.90;;;;;;5053265;28;20459;-72
2022/09/01 07:03:09;;;;;;;6.70;4.37;;;14.40;99.90;;;;;;5051806;28;20440;-71
2022/09/01 07:05:45;;;;;;;2.67;2.40;;;14.60;99.90;;;;;;5052312;28;20504;-70
2022/09/01 07:08:16;;;;;;;3.00;2.30;;;14.70;99.90;;;;;;5052145;28;20432;-73
2022/09/01 07:10:50;;;;;;;1.83;1.73;;;14.90;99.90;;;;;;5053053;28;20952;-72
2022/09/01 07:13:21;;;;;;;2.03;1.83;;;15.10;99.90;;;;;;5051501;28;20420;-72
2022/09/01 07:15:55;;;;;;;1.90;1.80;;;15.20;99.90;;;;;;5052718;28;20815;-71
2022/09/01 07:18:26;;;;;;;1.37;1.27;;;15.40;99.90;;;;;;5052198;28;20838;-73
2022/09/01 07:20:53;;;;;;;1.53;1.43;;;15.50;99.90;;;;;;5052885;28;20450;-73
2022/09/01 07:23:21;;;;;;;1.50;1.40;;;15.70;99.90;;;;;;5052283;28;20410;-73
2022/09/01 07:25:53;;;;;;;1.40;1.30;;;15.80;99.90;;;;;;5052678;28;20405;-74
2022/09/01 07:28:22;;;;;;;1.67;1.30;;;16.00;99.90;;;;;;5052113;28;20444;-72
2022/09/01 07:30:51;;;;;;;1.10;1.00;;;16.10;99.90;;;;;;5051500;28;20416;-72
2022/09/01 07:33:19;;;;;;;5.07;1.70;;;16.30;99.90;;;;;;5052816;28;20412;-73
2022/09/01 07:35:46;;;;;;;1.27;1.17;;;16.40;99.90;;;;;;5053985;28;20421;-73
2022/09/01 07:38:12;;;;;;;1.43;1.33;;;16.60;99.90;;;;;;5055982;28;20417;-71
2022/09/01 07:40:58;;;;;;;1.60;1.17;;;16.70;99.90;;;;;;5056421;28;20433;-73
2022/09/01 07:43:27;;;;;;;1.17;1.00;;;16.80;99.90;;;;;;5056424;28;20463;-72
2022/09/01 07:45:56;;;;;;;1.30;1.17;;;17.10;99.90;;;;;;5056393;28;20488;-74
2022/09/01 07:48:26;;;;;;;1.50;1.40;;;17.20;99.90;;;;;;5055902;28;20429;-71
2022/09/01 07:50:55;;;;;;;1.97;1.67;;;17.10;94.90;;;;;;5056598;28;20405;-71
2022/09/01 07:53:30;;;;;;;3.23;1.53;;;17.20;94.70;;;;;;5056467;28;20405;-73
2022/09/01 07:56:00;;;;;;;1.23;1.13;;;17.40;92.10;;;;;;5056048;28;20413;-73
2022/09/01 07:58:28;;;;;;;1.80;1.70;;;17.60;83.60;;;;;;5055959;28;20424;-71
2022/09/01 08:00:55;;;;;;;2.23;1.00;;;17.80;56.30;;;;;;5056034;28;20402;-73
2022/09/01 08:03:23;;;;;;;4.30;1.17;;;17.80;30.80;;;;;;5056449;28;21017;-74
2022/09/01 08:06:13;;;;;;;1.97;1.17;;;17.70;5.60;;;;;;5055068;28;20482;-73
2022/09/01 08:08:40;;;;;;;4.60;1.37;;;17.70;7.60;;;;;;5056320;28;20452;-71
2022/09/01 08:11:07;;;;;;;1.40;1.30;;;17.60;1.00;;;;;;5056268;28;20409;-73
2022/09/01 08:13:39;;;;;;;1.97;1.43;;;17.70;2.30;;;;;;5055957;28;20429;-73
2022/09/01 08:16:06;;;;;;;2.87;1.37;;;17.70;13.20;;;;;;5055090;28;20424;-72
2022/09/01 08:18:32;;;;;;;1.30;0.90;;;17.70;15.50;;;;;;5054349;28;20949;-72
2022/09/01 08:20:58;;;;;;;2.63;1.57;;;17.60;1.00;;;;;;5055762;28;20464;-73
2022/09/01 08:23:26;;;;;;;2.50;1.50;;;17.60;1.00;;;;;;5055997;28;20415;-73
2022/09/01 08:25:52;;;;;;;1.17;1.07;;;17.60;1.00;;;;;;5055732;28;20413;-74
2022/09/01 08:28:19;;;;;;;8.47;1.37;;;17.60;1.00;;;;;;5055125;28;20433;-71
2022/09/01 08:31:04;;;;;;;;;;;;;;;;;;;;;
2022/09/01 08:33:51;;;;;;;1.00;0.90;;;17.50;1.00;;;;;;5055441;28;20405;-70
2022/09/01 08:36:17;;;;;;;1.23;1.13;;;17.50;1.00;;;;;;5054756;28;20432;-72
2022/09/01 08:38:43;;;;;;;1.97;1.20;;;17.50;1.00;;;;;;5054986;28;20429;-72
2022/09/01 08:41:37;;;;;;;1.43;1.33;;;17.60;1.00;;;;;;5055764;28;20445;-73
2022/09/01 08:44:21;;;;;;;1.30;1.20;;;17.70;1.00;;;;;;5055544;28;20409;-73
2022/09/01 08:46:49;;;;;;;2.00;1.10;;;18.10;1.00;;;;;;5054152;28;20478;-71
2022/09/01 08:49:23;;;;;;;1.10;0.97;;;18.60;1.00;;;;;;5055615;28;20460;-71
2022/09/01 08:52:17;;;;;;;1.10;0.90;;;19.00;1.00;;;;;;5055438;28;20409;-71
2022/09/01 08:55:09;;;;;;;1.57;0.90;;;19.30;1.00;;;;;;5054041;28;21000;-72
2022/09/01 08:57:40;;;;;;;1.10;0.80;;;19.60;1.00;;;;;;5053192;28;20436;-74
2022/09/01 09:00:12;;;;;;;1.00;0.80;;;20.10;1.00;;;;;;5055226;28;20398;-73
2022/09/01 09:02:46;;;;;;;0.93;0.73;;;20.60;1.00;;;;;;5055328;28;20401;-74
2022/09/01 09:05:39;;;;;;;1.73;0.90;;;20.70;1.00;;;;;;5055285;28;20401;-74
2022/09/01 09:08:26;;;;;;;1.03;0.93;;;20.90;1.00;;;;;;5052878;28;20811;-73
2022/09/01 09:11:00;;;;;;;2.60;0.90;;;20.50;1.00;;;;;;5054971;28;20405;-74
2022/09/01 09:13:29;;;;;;;1.00;0.80;;;19.90;1.00;;;;;;5054590;28;20976;-74
2022/09/01 09:16:05;;;;;;;1.80;1.00;;;19.50;1.00;;;;;;5053152;28;20417;-72
2022/09/01 09:18:38;;;;;;;1.20;1.10;;;19.10;1.00;;;;;;5054958;28;20425;-72
2022/09/01 09:21:24;;;;;;;1.17;1.07;;;18.80;1.00;;;;;;5054804;28;20417;-73
2022/09/01 09:23:57;;;;;;;2.23;1.00;;;18.60;1.00;;;;;;5054958;28;20408;-70
2022/09/01 09:26:23;;;;;;;2.93;1.00;;;18.70;1.00;;;;;;5052594;28;20421;-72
2022/09/01 09:28:49;;;;;;;6.97;1.60;;;19.20;1.00;;;;;;5054527;28;20437;-73
2022/09/01 09:31:49;;;;;;;1.67;1.10;;;19.90;1.00;;;;;;5054835;28;20183;-71
2022/09/01 09:34:40;;;;;;;1.00;0.87;;;20.70;1.00;;;;;;5052922;28;20488;-71
2022/09/01 09:37:18;;;;;;;1.13;1.03;;;21.10;1.00;;;;;;5053809;28;20414;-74
2022/09/01 09:39:44;;;;;;;1.10;0.90;;;21.20;1.00;;;;;;5053273;28;20418;-70
2022/09/01 09:42:12;;;;;;;1.00;0.80;;;20.80;1.00;;;;;;5053189;28;20425;-74
2022/09/01 09:44:51;;;;;;;1.47;0.80;;;20.40;1.00;;;;;;5054385;28;20413;-74
2022/09/01 09:47:43;;;;;;;1.70;0.90;;;19.90;1.00;;;;;;5053584;28;20488;-74
2022/09/01 09:50:35;;;;;;;;;;;;;;;;;;;;;
2022/09/01 09:53:15;;;;;;;1.57;1.00;;;20.00;1.00;;;;;;5053734;28;20428;-74
2022/09/01 09:56:06;;;;;;;2.90;0.83;;;19.80;1.00;;;;;;5052936;28;20465;-74
2022/09/01 09:58:45;;;;;;;2.53;0.90;;;20.30;1.00;;;;;;5053264;28;20457;-70
2022/09/01 10:01:29;;;;;;;0.97;0.70;;;21.10;1.00;;;;;;5054213;28;20417;-74
2022/09/01 10:04:02;;;;;;;1.17;1.07;;;21.20;1.00;;;;;;5054201;28;20566;-71
2022/09/01 10:06:43;;;;;;;1.30;1.00;;;21.50;1.00;;;;;;5053181;28;20405;-74
2022/09/01 10:09:40;;;;;;;1.00;0.83;;;21.70;1.00;;;;;;5053381;28;20467;-74
2022/09/01 10:12:09;;;;;;;1.10;0.90;;;21.20;1.00;;;;;;5053914;28;20417;-71
2022/09/01 10:14:46;;;;;;;1.80;1.20;;;20.90;1.00;;;;;;5052485;28;20464;-72
2022/09/01 10:17:17;;;;;;;1.00;0.90;;;21.60;1.00;;;;;;5052752;28;20468;-71
2022/09/01 10:20:04;;;;;;;1.10;0.90;;;22.50;1.00;;;;;;5053551;28;20432;-71
2022/09/01 10:22:31;;;;;;;1.77;1.00;;;22.90;1.00;;;;;;5053748;28;20405;-71
2022/09/01 10:24:59;;;;;;;0.90;0.73;;;22.30;1.00;;;;;;5053565;28;20406;-73
2022/09/01 10:27:31;;;;;;;1.30;0.80;;;22.70;1.00;;;;;;5052687;28;20541;-73
2022/09/01 10:30:20;;;;;;;1.10;1.00;;;23.20;1.00;;;;;;5053125;28;20401;-71
2022/09/01 10:32:48;;;;;;;1.40;0.70;;;23.60;1.00;;;;;;5053510;28;20475;-75
2022/09/01 10:35:22;;;;;;;0.90;0.63;;;24.30;1.00;;;;;;5053414;28;20861;-71
2022/09/01 10:37:50;;;;;;;1.50;0.80;;;24.50;1.00;;;;;;5051365;28;20433;-74
2022/09/01 10:40:27;;;;;;;0.90;0.60;;;24.50;1.00;;;;;;5053436;28;20405;-72
2022/09/01 10:42:56;;;;;;;0.90;0.70;;;24.00;1.00;;;;;;5053359;28;20821;-75
2022/09/01 10:45:29;;;;;;;1.20;1.00;;;23.00;1.00;;;;;;5053015;28;20467;-73
2022/09/01 10:48:03;;;;;;;3.17;0.80;;;22.10;1.00;;;;;;5052128;28;20492;-75
2022/09/01 10:50:31;;;;;;;0.90;0.60;;;22.30;1.00;;;;;;5053295;28;20414;-72
2022/09/01 10:52:58;;;;;;;1.10;0.70;;;23.00;1.00;;;;;;5053206;28;20417;-74
2022/09/01 10:55:31;;;;;;;1.13;0.70;;;23.90;1.00;;;;;;5052884;28;20460;-73
2022/09/01 10:58:24;;;;;;;1.80;0.90;;;24.90;1.00;;;;;;5052237;28;20436;-76
2022/09/01 11:00:52;;;;;;;1.00;0.80;;;25.50;1.00;;;;;;5051842;28;20424;-72
2022/09/01 11:03:17;;;;;;;1.00;0.80;;;25.60;1.00;;;;;;5053010;28;20413;-75
2022/09/01 11:06:06;;;;;;;1.00;0.80;;;25.40;1.00;;;;;;5052412;28;20411;-75
2022/09/01 11:08:31;;;;;;;1.00;0.70;;;24.60;1.00;;;;;;5051768;28;20191;-75
2022/09/01 11:11:24;;;;;;;1.20;0.90;;;24.70;1.00;;;;;;5052759;28;20407;-74
2022/09/01 11:13:53;;;;;;;4.03;0.80;;;25.20;1.00;;;;;;5052894;28;20202;-72
2022/09/01 11:16:27;;;;;;;1.10;0.80;;;25.40;1.00;;;;;;5052005;28;21206;-72
2022/09/01 11:18:54;;;;;;;1.37;1.00;;;25.70;1.00;;;;;;5052857;28;20429;-72
2022/09/01 11:21:27;;;;;;;6.30;0.97;;;26.20;1.00;;;;;;5052866;28;20444;-71
2022/09/01 11:24:30;;;;;;;0.90;0.60;;;26.60;1.00;;;;;;5052391;28;20500;-71
2022/09/01 11:26:56;;;;;;;1.10;0.90;;;27.00;1.00;;;;;;5050668;28;20417;-70
2022/09/01 11:30:12;;;;;;;1.00;0.70;;;26.70;1.00;;;;;;5051733;28;20437;-74
2022/09/01 11:32:40;;;;;;;0.97;0.73;;;25.20;1.00;;;;;;5040368;28;20639;-72
2022/09/01 11:35:17;;;;;;;1.57;0.70;;;23.30;99.90;;;;;;5051605;28;20822;-74
2022/09/01 11:37:47;;;;;;;2.57;0.97;;;23.10;99.90;;;;;;5051803;28;20451;-75
2022/09/01 11:40:21;;;;;;;1.10;0.77;;;23.90;99.90;;;;;;5052202;28;20441;-75
2022/09/01 11:42:49;;;;;;;2.03;0.70;;;23.80;99.90;;;;;;5052671;28;20440;-72
2022/09/01 11:45:19;;;;;;;1.00;0.80;;;23.20;99.90;;;;;;5052687;28;20441;-72
2022/09/01 11:47:59;;;;;;;2.60;0.67;;;23.40;99.90;;;;;;5051709;28;20921;-75
2022/09/01 11:50:29;;;;;;;1.47;0.60;;;23.80;99.90;;;;;;5051628;28;20417;-72
2022/09/01 11:53:02;;;;;;;3.00;0.97;;;23.90;1.00;;;;;;5052602;28;20413;-74
2022/09/01 11:55:44;;;;;;;1.00;0.70;;;24.20;1.00;;;;;;5052393;28;20459;-73
2022/09/01 11:58:12;;;;;;;1.00;0.70;;;24.50;1.00;;;;;;5049895;28;20829;-72
2022/09/01 12:00:40;;;;;;;0.90;0.70;;;24.90;1.00;;;;;;5051371;28;20831;-75
2022/09/01 12:03:19;;;;;;;1.03;0.70;;;24.50;1.00;;;;;;5051551;28;20445;-76
2022/09/01 12:05:48;;;;;;;1.17;0.80;;;23.90;99.90;;;;;;5052150;28;20455;-75
2022/09/01 12:08:18;;;;;;;1.00;0.80;;;23.90;99.90;;;;;;5051634;28;20425;-76
2022/09/01 12:10:45;;;;;;;1.00;0.77;;;24.40;1.00;;;;;;5052486;28;20413;-74
2022/09/01 12:13:18;;;;;;;1.00;0.80;;;24.50;1.00;;;;;;5052419;28;20402;-76
2022/09/01 12:15:55;;;;;;;1.97;1.20;;;24.40;99.90;;;;;;5050791;28;20539;-74
2022/09/01 12:18:26;;;;;;;1.10;0.80;;;23.80;99.90;;;;;;5050162;28;20787;-76
2022/09/01 12:20:55;;;;;;;0.90;0.70;;;23.00;99.90;;;;;;5052615;28;20401;-72
2022/09/01 12:23:34;;;;;;;1.63;0.90;;;22.70;99.90;;;;;;5056111;28;20412;-75
2022/09/01 12:26:11;;;;;;;1.70;1.07;;;22.40;99.90;;;;;;5055394;28;20439;-75
2022/09/01 12:28:40;;;;;;;1.67;0.80;;;22.20;99.90;;;;;;5055821;28;20429;-75
2022/09/01 12:31:13;;;;;;;1.00;0.73;;;22.30;99.90;;;;;;5055872;28;20417;-72
2022/09/01 12:33:41;;;;;;;1.10;0.87;;;22.60;99.90;;;;;;5055639;28;20409;-73
2022/09/01 12:36:25;;;;;;;1.10;0.97;;;23.10;99.90;;;;;;5054107;28;20516;-75
2022/09/01 12:38:53;;;;;;;1.10;0.90;;;23.50;1.00;;;;;;5055605;28;20421;-75
2022/09/01 12:41:22;;;;;;;3.93;0.80;;;23.80;99.90;;;;;;5054484;28;20406;-76
2022/09/01 12:43:50;;;;;;;1.10;0.70;;;24.30;99.90;;;;;;5055573;28;20397;-71
2022/09/01 12:46:41;;;;;;;0.90;0.70;;;24.40;99.90;;;;;;5054645;28;20786;-73
2022/09/01 12:49:19;;;;;;;1.03;0.90;;;22.90;99.90;;;;;;5055429;28;20937;-75
2022/09/01 12:51:49;;;;;;;1.40;0.80;;;23.40;99.90;;;;;;5055367;28;20412;-74
2022/09/01 12:54:24;;;;;;;1.07;0.87;;;23.90;99.90;;;;;;5053362;28;20457;-76
2022/09/01 12:56:50;;;;;;;1.10;0.80;;;24.70;1.00;;;;;;5053217;28;20469;-76
2022/09/01 12:59:24;;;;;;;1.00;0.80;;;25.30;1.00;;;;;;5055348;28;20421;-73
2022/09/01 13:01:51;;;;;;;2.30;0.70;;;25.60;1.00;;;;;;5054008;28;20416;-72
2022/09/01 13:04:20;;;;;;;1.50;1.00;;;25.60;99.90;;;;;;5055101;28;20422;-73
2022/09/01 13:06:46;;;;;;;1.33;0.80;;;25.90;1.00;;;;;;5054261;28;20906;-76
2022/09/01 13:09:11;;;;;;;3.17;0.80;;;25.40;99.90;;;;;;5054150;28;20434;-76
2022/09/01 13:11:38;;;;;;;2.30;0.70;;;24.20;99.90;;;;;;5053395;28;20224;-75
2022/09/01 13:14:04;;;;;;;1.80;0.80;;;23.80;99.90;;;;;;5054678;28;20237;-74
2022/09/01 13:16:29;;;;;;;0.90;0.70;;;24.00;99.90;;;;;;5054124;28;20433;-72
2022/09/01 13:18:55;;;;;;;7.03;0.70;;;24.20;99.90;;;;;;5053869;28;20197;-72
2022/09/01 13:21:21;;;;;;;1.00;0.60;;;24.60;99.90;;;;;;5053966;28;20648;-76
2022/09/01 13:23:49;;;;;;;1.13;0.80;;;24.70;99.90;;;;;;5053596;28;20174;-73
2022/09/01 13:26:15;;;;;;;0.90;0.60;;;24.00;99.90;;;;;;5052647;28;20171;-76